Terminal Aerodrome Forecast
Issued by NWS Bismarck, ND

Home | Current Version | Previous Version | Text Only | Print | Product List | Glossary Off
Versions: 1 2 3 4 5 6 7 8 9 10 11 12 13 14

026
FTUS43 KBIS 232331
TAFISN
TAF
KISN 232331Z 2400/2424 08006KT P6SM BKN130
     FM240700 08004KT 5SM BR SCT130
     FM241200 08004KT P6SM BKN015
     FM241500 08004KT P6SM SCT015
     FM241900 12006KT P6SM FEW150=

USA.gov is the U.S. government's official web portal to all federal, state and local government web resources and services.